createdAt,value
2017-08-17T00:01:53.343Z,97.20
2017-08-17T00:04:20.871Z,96.80
2017-08-17T00:06:48.416Z,96.80
2017-08-17T00:09:15.933Z,96.60
2017-08-17T00:11:44.247Z,96.90
2017-08-17T00:14:11.766Z,96.80
2017-08-17T00:16:40.065Z,97.00
2017-08-17T00:19:07.582Z,97.00
2017-08-17T00:21:35.118Z,96.70
2017-08-17T00:24:02.644Z,96.70
2017-08-17T00:26:30.201Z,97.00
2017-08-17T00:28:57.722Z,97.20
2017-08-17T00:31:26.031Z,97.30
2017-08-17T00:33:53.555Z,97.30
2017-08-17T00:36:21.864Z,96.70
2017-08-17T00:38:49.403Z,96.60
2017-08-17T00:41:17.713Z,96.70
2017-08-17T00:43:45.238Z,96.70
2017-08-17T00:46:13.545Z,96.80
2017-08-17T00:48:41.831Z,97.00
2017-08-17T00:51:09.350Z,97.00
2017-08-17T00:53:36.890Z,97.30
2017-08-17T00:56:04.414Z,97.60
2017-08-17T00:58:31.954Z,97.70
2017-08-17T01:00:59.470Z,97.60
2017-08-17T01:03:27.014Z,97.30
2017-08-17T01:05:55.293Z,97.80
2017-08-17T01:08:22.834Z,97.40
2017-08-17T01:10:51.123Z,96.80
2017-08-17T01:13:18.662Z,96.50
2017-08-17T01:15:46.180Z,96.80
2017-08-17T01:18:13.720Z,97.00
2017-08-17T01:20:41.234Z,97.40
2017-08-17T01:23:08.771Z,97.60
2017-08-17T01:25:36.299Z,98.10
2017-08-17T01:28:04.608Z,97.20
2017-08-17T01:30:32.121Z,97.20
2017-08-17T01:33:00.432Z,97.80
2017-08-17T01:35:27.951Z,97.70
2017-08-17T01:37:55.475Z,97.00
2017-08-17T01:40:23.049Z,97.30
2017-08-17T01:42:51.337Z,96.10
2017-08-17T01:45:18.882Z,96.00
2017-08-17T01:47:47.176Z,97.80
2017-08-17T01:50:14.717Z,97.80
2017-08-17T01:52:42.280Z,98.10
2017-08-17T01:55:09.830Z,97.20
2017-08-17T01:57:38.118Z,97.90
2017-08-17T02:00:05.667Z,97.90
2017-08-17T02:02:33.195Z,98.20
2017-08-17T02:05:01.502Z,98.30
2017-08-17T02:07:29.026Z,98.20
2017-08-17T02:09:57.329Z,98.00
2017-08-17T02:12:24.850Z,97.90
2017-08-17T02:14:52.396Z,97.90
2017-08-17T02:17:20.702Z,98.60
2017-08-17T02:19:48.224Z,98.20
2017-08-17T02:22:15.765Z,98.40
2017-08-17T02:24:43.282Z,98.30
2017-08-17T02:27:11.582Z,98.30
2017-08-17T02:29:39.103Z,98.00
2017-08-17T02:32:06.636Z,97.00
2017-08-17T02:34:34.158Z,97.10
2017-08-17T02:37:01.708Z,97.40
2017-08-17T02:39:30.002Z,97.80
2017-08-17T02:41:57.548Z,97.80
2017-08-17T02:44:25.072Z,98.20
2017-08-17T02:46:52.623Z,98.70
2017-08-17T02:49:20.147Z,98.50
2017-08-17T02:51:48.435Z,98.80
2017-08-17T02:54:15.970Z,98.80
2017-08-17T02:56:44.259Z,97.00
2017-08-17T02:59:11.798Z,97.30
2017-08-17T03:01:39.316Z,97.60
2017-08-17T03:04:06.860Z,97.60
2017-08-17T03:06:34.388Z,97.80
2017-08-17T03:09:01.927Z,98.30
2017-08-17T03:11:29.450Z,98.30
2017-08-17T03:13:56.989Z,98.00
2017-08-17T03:16:25.289Z,97.00
2017-08-17T03:18:52.842Z,97.00
2017-08-17T03:21:20.367Z,97.30
2017-08-17T03:23:47.892Z,98.10
2017-08-17T03:26:15.434Z,98.80
2017-08-17T03:28:42.962Z,99.00
2017-08-17T03:31:10.510Z,99.10
2017-08-17T03:33:38.045Z,98.80
2017-08-17T03:36:05.586Z,98.40
2017-08-17T03:38:33.111Z,98.40
2017-08-17T03:41:00.651Z,98.10
2017-08-17T03:43:28.174Z,98.40
2017-08-17T03:45:56.484Z,98.90
2017-08-17T03:48:23.999Z,98.80
2017-08-17T03:50:51.543Z,97.70
2017-08-17T03:53:19.063Z,98.10
2017-08-17T03:55:46.598Z,98.90
2017-08-17T03:58:14.123Z,98.60
2017-08-17T04:00:42.421Z,98.70
2017-08-17T04:03:09.967Z,98.70
2017-08-17T04:05:37.488Z,98.60
2017-08-17T04:08:05.037Z,98.60
2017-08-17T04:10:32.553Z,98.40
2017-08-17T04:13:00.086Z,98.40
2017-08-17T04:15:27.605Z,98.40
2017-08-17T04:17:55.152Z,98.70
2017-08-17T04:20:22.676Z,99.00
2017-08-17T04:22:50.988Z,98.80
2017-08-17T04:25:18.508Z,98.70
2017-08-17T04:27:46.055Z,98.40
2017-08-17T04:30:13.583Z,97.60
2017-08-17T04:32:41.879Z,97.60
2017-08-17T04:35:09.416Z,97.60
2017-08-17T04:37:37.710Z,98.30
2017-08-17T04:40:05.262Z,98.30
2017-08-17T04:42:33.556Z,98.80
2017-08-17T04:45:01.094Z,98.70
2017-08-17T04:47:28.609Z,98.30
2017-08-17T04:49:56.159Z,97.20
2017-08-17T04:52:24.495Z,95.90
2017-08-17T04:54:52.041Z,94.50
2017-08-17T04:57:38.146Z,92.60
2017-08-17T05:00:06.460Z,91.80
2017-08-17T05:02:33.974Z,91.70
2017-08-17T05:05:02.286Z,90.70
2017-08-17T05:07:29.803Z,90.30
2017-08-17T05:09:57.346Z,89.40
2017-08-17T05:12:24.870Z,86.70
2017-08-17T05:14:52.395Z,83.60
2017-08-17T05:17:19.936Z,80.20
2017-08-17T05:19:47.459Z,77.20
2017-08-17T05:22:14.998Z,75.00
2017-08-17T05:24:42.520Z,73.90
2017-08-17T05:27:10.059Z,72.90
2017-08-17T05:29:37.583Z,70.90
2017-08-17T05:32:05.892Z,70.00
2017-08-17T05:34:33.405Z,69.10
2017-08-17T05:37:00.954Z,67.90
2017-08-17T05:39:28.492Z,66.90
2017-08-17T05:41:56.794Z,65.90
2017-08-17T05:44:24.320Z,65.80
2017-08-17T05:46:52.611Z,71.10
2017-08-17T05:49:20.146Z,71.00
2017-08-17T05:51:47.661Z,75.30
2017-08-17T05:54:15.201Z,78.50
2017-08-17T05:56:42.729Z,79.40
2017-08-17T05:59:10.274Z,81.20
2017-08-17T06:01:37.790Z,81.70
2017-08-17T06:04:05.331Z,81.30
2017-08-17T06:06:33.610Z,81.30
2017-08-17T06:09:01.920Z,81.60
2017-08-17T06:11:29.442Z,81.50
2017-08-17T06:13:57.741Z,82.50
2017-08-17T06:16:25.274Z,82.40
2017-08-17T06:18:53.567Z,83.70
2017-08-17T06:21:21.106Z,83.60
2017-08-17T06:23:48.628Z,82.90
2017-08-17T06:26:16.163Z,82.10
2017-08-17T06:28:43.683Z,82.70
2017-08-17T06:31:11.234Z,79.50
2017-08-17T06:33:38.758Z,77.30
2017-08-17T06:36:06.294Z,74.80
2017-08-17T06:38:33.836Z,69.10
2017-08-17T06:41:01.370Z,70.20
2017-08-17T06:43:28.911Z,70.50
2017-08-17T06:45:57.198Z,70.90
2017-08-17T06:48:24.742Z,70.70
2017-08-17T06:50:53.134Z,70.80
2017-08-17T06:53:21.535Z,67.50
2017-08-17T06:55:49.057Z,67.50
2017-08-17T06:58:16.603Z,66.50
2017-08-17T07:00:44.120Z,64.90
2017-08-17T07:03:11.654Z,66.20
2017-08-17T07:05:39.186Z,64.00
2017-08-17T07:08:06.743Z,62.50
2017-08-17T07:10:34.266Z,61.30
2017-08-17T07:13:01.788Z,59.30
2017-08-17T07:15:29.336Z,59.50
2017-08-17T07:17:56.923Z,59.00
2017-08-17T07:20:24.467Z,59.20
2017-08-17T07:22:51.989Z,58.50
2017-08-17T07:25:20.287Z,62.40
2017-08-17T07:27:47.816Z,62.20
2017-08-17T07:30:16.123Z,60.20
2017-08-17T07:32:43.652Z,60.00
2017-08-17T07:35:11.200Z,60.10
2017-08-17T07:37:38.727Z,61.20
2017-08-17T07:40:06.267Z,60.30
2017-08-17T07:42:34.550Z,63.40
2017-08-17T07:45:02.104Z,63.30
2017-08-17T07:47:30.391Z,60.90
2017-08-17T07:49:58.027Z,60.90
2017-08-17T07:52:25.550Z,60.30
2017-08-17T07:54:53.847Z,60.50
2017-08-17T07:57:21.386Z,60.40
2017-08-17T07:59:49.679Z,60.10
2017-08-17T08:02:17.983Z,58.40
2017-08-17T08:04:45.495Z,58.40
2017-08-17T08:07:13.036Z,58.00
2017-08-17T08:09:40.551Z,58.10
2017-08-17T08:12:08.097Z,58.20
2017-08-17T08:14:35.627Z,58.70
2017-08-17T08:17:03.166Z,59.10
2017-08-17T08:19:31.466Z,58.10
2017-08-17T08:21:59.010Z,57.40
2017-08-17T08:24:26.538Z,57.30
2017-08-17T08:26:54.085Z,56.30
2017-08-17T08:29:21.607Z,56.50
2017-08-17T08:31:49.143Z,56.00
2017-08-17T08:34:16.691Z,55.60
2017-08-17T08:36:44.222Z,56.00
2017-08-17T08:39:11.770Z,55.20
2017-08-17T08:41:40.050Z,55.40
2017-08-17T08:44:08.391Z,54.00
2017-08-17T08:46:35.924Z,54.00
2017-08-17T08:49:04.227Z,52.00
2017-08-17T08:51:31.745Z,51.90
2017-08-17T08:53:59.293Z,51.60
2017-08-17T08:56:26.815Z,51.50
2017-08-17T08:58:54.354Z,50.80
2017-08-17T09:01:21.870Z,50.40
2017-08-17T09:03:49.423Z,50.70
2017-08-17T09:06:16.996Z,51.60
2017-08-17T09:08:44.523Z,52.10
2017-08-17T09:11:12.063Z,54.10
2017-08-17T09:13:39.580Z,53.00
2017-08-17T09:16:07.118Z,52.60
2017-08-17T09:18:34.643Z,52.50
2017-08-17T09:21:02.182Z,53.90
2017-08-17T09:23:29.699Z,53.50
2017-08-17T09:25:57.240Z,54.40
2017-08-17T09:28:24.766Z,54.70
2017-08-17T09:30:53.147Z,53.70
2017-08-17T09:33:20.666Z,54.80
2017-08-17T09:35:48.192Z,54.30
2017-08-17T09:38:15.735Z,54.30
2017-08-17T09:40:43.259Z,55.70
2017-08-17T09:43:10.798Z,57.60
2017-08-17T09:45:38.320Z,58.20
2017-08-17T09:48:06.629Z,59.60
2017-08-17T09:50:34.150Z,59.60
2017-08-17T09:53:01.691Z,59.40
2017-08-17T09:55:29.219Z,59.40
2017-08-17T09:57:56.756Z,59.40
2017-08-17T10:00:24.283Z,59.00
2017-08-17T10:02:51.826Z,58.10
2017-08-17T10:05:19.341Z,56.70
2017-08-17T10:07:46.887Z,56.50
2017-08-17T10:10:14.431Z,56.60
2017-08-17T10:12:42.714Z,53.60
2017-08-17T10:15:11.023Z,54.30
2017-08-17T10:17:38.553Z,54.20
2017-08-17T10:20:06.101Z,53.30
2017-08-17T10:22:33.628Z,54.10
2017-08-17T10:25:01.170Z,53.60
2017-08-17T10:27:28.687Z,52.80
2017-08-17T10:29:56.247Z,52.40
2017-08-17T10:32:23.772Z,53.30
2017-08-17T10:34:51.295Z,54.30
2017-08-17T10:37:18.840Z,54.00
2017-08-17T10:39:46.358Z,55.30
2017-08-17T10:42:14.664Z,57.30
2017-08-17T10:44:42.191Z,57.30
2017-08-17T10:47:10.499Z,58.80
2017-08-17T10:49:38.019Z,58.80
2017-08-17T10:52:06.318Z,57.30
2017-08-17T10:54:33.835Z,57.30
2017-08-17T10:57:01.387Z,57.00
2017-08-17T10:59:28.910Z,57.20
2017-08-17T11:01:56.450Z,57.90
2017-08-17T11:04:23.966Z,58.90
2017-08-17T11:06:51.484Z,59.60
2017-08-17T11:09:19.790Z,59.80
2017-08-17T11:11:47.315Z,59.70
2017-08-17T11:14:15.624Z,56.90
2017-08-17T11:16:43.151Z,56.90
2017-08-17T11:19:10.712Z,55.30
2017-08-17T11:21:38.232Z,55.20
2017-08-17T11:24:05.751Z,51.60
2017-08-17T11:26:33.295Z,52.60
2017-08-17T11:29:00.821Z,53.20
2017-08-17T11:31:28.356Z,55.20
2017-08-17T11:33:56.644Z,55.70
2017-08-17T11:36:24.192Z,55.60
2017-08-17T11:38:51.710Z,55.80
2017-08-17T11:41:19.251Z,55.10
2017-08-17T11:43:46.771Z,55.70
2017-08-17T11:46:14.312Z,57.80
2017-08-17T11:48:42.111Z,58.10
2017-08-17T11:51:09.175Z,58.00
2017-08-17T11:53:36.717Z,57.10
2017-08-17T11:56:04.234Z,56.70
2017-08-17T11:58:31.774Z,58.30
2017-08-17T12:01:00.066Z,57.20
2017-08-17T12:03:28.375Z,55.00
2017-08-17T12:05:55.899Z,55.00
2017-08-17T12:08:24.207Z,58.10
2017-08-17T12:10:51.723Z,58.10
2017-08-17T12:13:19.269Z,58.60
2017-08-17T12:15:47.559Z,57.10
2017-08-17T12:18:15.107Z,57.10
2017-08-17T12:20:42.628Z,58.30
2017-08-17T12:23:10.146Z,58.00
2017-08-17T12:25:37.682Z,56.30
2017-08-17T12:28:05.204Z,54.90
2017-08-17T12:30:33.508Z,57.70
2017-08-17T12:33:01.790Z,58.90
2017-08-17T12:35:29.325Z,58.90
2017-08-17T12:37:56.844Z,59.30
2017-08-17T12:40:24.391Z,59.80
2017-08-17T12:42:51.913Z,60.80
2017-08-17T12:45:19.449Z,60.50
2017-08-17T12:47:46.975Z,61.10
2017-08-17T12:50:14.510Z,60.60
2017-08-17T12:52:42.034Z,60.00
2017-08-17T12:55:10.353Z,59.40
2017-08-17T12:57:37.874Z,59.40
2017-08-17T13:00:06.163Z,57.80
2017-08-17T13:02:33.707Z,57.80
2017-08-17T13:05:01.994Z,57.60
2017-08-17T13:07:29.534Z,57.60
2017-08-17T13:09:57.051Z,58.00
2017-08-17T13:12:24.583Z,58.30
2017-08-17T13:14:52.109Z,58.20
2017-08-17T13:17:19.646Z,58.80
2017-08-17T13:19:47.163Z,59.20
2017-08-17T13:22:14.718Z,59.50
2017-08-17T13:24:42.234Z,60.30
2017-08-17T13:27:09.750Z,58.80
2017-08-17T13:29:37.299Z,59.50
2017-08-17T13:32:04.814Z,57.60
2017-08-17T13:34:32.354Z,57.00
2017-08-17T13:36:59.880Z,56.00
2017-08-17T13:39:28.192Z,58.20
2017-08-17T13:41:55.715Z,57.60
2017-08-17T13:44:23.263Z,59.10
2017-08-17T13:46:50.783Z,59.30
2017-08-17T13:49:18.318Z,59.30
2017-08-17T13:51:46.607Z,60.10
2017-08-17T13:54:14.917Z,58.60
2017-08-17T13:56:42.436Z,58.70
2017-08-17T13:59:09.953Z,59.70
2017-08-17T14:01:37.491Z,57.80
2017-08-17T14:04:05.017Z,58.60
2017-08-17T14:06:32.555Z,58.80
2017-08-17T14:09:00.074Z,56.30
2017-08-17T14:11:27.611Z,57.50
2017-08-17T14:13:55.136Z,55.80
2017-08-17T14:16:22.677Z,56.80
2017-08-17T14:18:50.199Z,55.80
2017-08-17T14:21:17.740Z,55.50
2017-08-17T14:23:45.266Z,55.60
2017-08-17T14:26:12.814Z,55.40
2017-08-17T14:28:40.365Z,55.10
2017-08-17T14:31:07.887Z,55.30
2017-08-17T14:33:35.427Z,55.20
2017-08-17T14:36:03.711Z,57.20
2017-08-17T14:38:32.022Z,57.10
2017-08-17T14:40:59.547Z,57.00
2017-08-17T14:43:27.854Z,56.00
2017-08-17T14:45:55.376Z,56.00
2017-08-17T14:48:23.698Z,58.10
2017-08-17T14:50:51.285Z,58.00
2017-08-17T14:53:18.864Z,57.90
2017-08-17T14:55:46.410Z,58.20
2017-08-17T14:58:13.935Z,59.00
2017-08-17T15:00:41.484Z,57.80
2017-08-17T15:03:09.007Z,57.80
2017-08-17T15:05:36.548Z,57.90
2017-08-17T15:08:04.070Z,56.90
2017-08-17T15:10:31.612Z,59.00
2017-08-17T15:12:59.140Z,58.20
2017-08-17T15:15:26.681Z,59.20
2017-08-17T15:17:54.207Z,58.60
2017-08-17T15:20:22.529Z,58.20
2017-08-17T15:22:50.053Z,57.80
2017-08-17T15:25:17.580Z,56.20
2017-08-17T15:27:45.126Z,56.10
2017-08-17T15:30:12.655Z,56.40
2017-08-17T15:32:40.964Z,57.40
2017-08-17T15:35:08.483Z,57.40
2017-08-17T15:37:36.783Z,58.50
2017-08-17T15:40:04.303Z,58.50
2017-08-17T15:42:31.846Z,58.20
2017-08-17T15:44:59.369Z,56.80
2017-08-17T15:47:26.907Z,57.70
2017-08-17T15:49:54.422Z,58.10
2017-08-17T15:52:21.974Z,58.10
2017-08-17T15:54:49.495Z,57.70
2017-08-17T15:57:17.014Z,57.30
2017-08-17T15:59:45.326Z,59.40
2017-08-17T16:02:12.843Z,59.30
2017-08-17T16:04:41.159Z,59.60
2017-08-17T16:09:59.399Z,60.40
2017-08-17T16:12:26.918Z,61.40
2017-08-17T16:14:55.227Z,62.10
2017-08-17T16:17:22.742Z,61.90
2017-08-17T16:19:50.278Z,62.40
2017-08-17T16:22:17.800Z,64.10
2017-08-17T16:24:45.350Z,65.80
2017-08-17T16:27:12.866Z,66.20
2017-08-17T16:29:40.403Z,66.70
2017-08-17T16:32:07.918Z,67.60
2017-08-17T16:34:35.455Z,68.00
2017-08-17T16:37:02.977Z,68.80
2017-08-17T16:39:30.529Z,69.40
2017-08-17T16:41:58.045Z,70.30
2017-08-17T16:44:25.562Z,70.00
2017-08-17T16:46:53.105Z,70.20
2017-08-17T16:49:20.630Z,71.80
2017-08-17T16:51:48.165Z,73.60
2017-08-17T16:54:15.682Z,74.20
2017-08-17T16:56:43.218Z,74.70
2017-08-17T16:59:10.739Z,76.60
2017-08-17T17:01:38.282Z,78.70
2017-08-17T17:04:05.802Z,77.70
2017-08-17T17:06:33.327Z,77.00
2017-08-17T17:09:00.878Z,74.70
2017-08-17T17:11:28.398Z,78.80
2017-08-17T17:13:55.939Z,79.80
2017-08-17T17:16:23.466Z,80.00
2017-08-17T17:18:51.779Z,79.40
2017-08-17T17:21:19.309Z,79.30
2017-08-17T17:23:46.842Z,81.10
2017-08-17T17:26:14.381Z,81.90
2017-08-17T17:28:41.923Z,82.20
2017-08-17T17:31:09.438Z,82.70
2017-08-17T17:33:36.959Z,82.10
2017-08-17T17:36:04.493Z,82.80
2017-08-17T17:38:32.005Z,83.60
2017-08-17T17:40:59.538Z,83.30
2017-08-17T17:43:27.062Z,82.20
2017-08-17T17:45:54.600Z,81.50
2017-08-17T17:48:22.129Z,81.50
2017-08-17T17:50:50.134Z,79.10
2017-08-17T17:53:18.031Z,79.20
2017-08-17T17:55:46.420Z,80.20
2017-08-17T17:58:13.962Z,80.20
2017-08-17T18:00:41.498Z,79.60
2017-08-17T18:03:09.014Z,79.50
2017-08-17T18:05:36.567Z,79.90
2017-08-17T18:08:04.087Z,79.50
2017-08-17T18:10:32.369Z,80.70
2017-08-17T18:12:59.916Z,80.70
2017-08-17T18:15:27.425Z,80.80
2017-08-17T18:17:54.963Z,79.70
2017-08-17T18:20:22.478Z,78.90
2017-08-17T18:22:50.017Z,78.30
2017-08-17T18:25:17.534Z,79.90
2017-08-17T18:27:45.068Z,78.80
2017-08-17T18:30:12.592Z,78.00
2017-08-17T18:32:40.142Z,73.30
2017-08-17T18:35:07.654Z,73.70
2017-08-17T18:37:35.223Z,74.20
2017-08-17T18:40:02.742Z,74.10
2017-08-17T18:42:30.264Z,73.40
2017-08-17T18:44:57.796Z,74.10
2017-08-17T18:47:25.310Z,73.80
2017-08-17T18:49:52.840Z,73.60
2017-08-17T18:52:20.363Z,73.40
2017-08-17T18:54:47.908Z,74.10
2017-08-17T18:57:15.425Z,74.40
2017-08-17T18:59:43.727Z,74.80
2017-08-17T19:02:11.255Z,74.70
2017-08-17T19:04:38.798Z,74.40
2017-08-17T19:07:06.323Z,75.30
2017-08-17T19:09:33.858Z,75.20
2017-08-17T19:12:01.379Z,75.40
2017-08-17T19:14:28.933Z,75.70
2017-08-17T19:16:56.459Z,75.70
2017-08-17T19:19:23.982Z,75.80
2017-08-17T19:21:51.517Z,75.90
2017-08-17T19:24:19.037Z,76.40
2017-08-17T19:26:47.341Z,76.90
2017-08-17T19:29:14.864Z,76.80
2017-08-17T19:31:43.175Z,77.30
2017-08-17T19:34:10.695Z,77.30
2017-08-17T19:36:38.233Z,76.80
2017-08-17T19:39:05.747Z,77.00
2017-08-17T19:41:33.292Z,77.40
2017-08-17T19:44:00.808Z,77.50
2017-08-17T19:46:28.342Z,77.70
2017-08-17T19:48:56.625Z,78.30
2017-08-17T19:51:24.905Z,78.30
2017-08-17T19:53:53.207Z,78.50
2017-08-17T19:56:20.738Z,78.50
2017-08-17T19:58:49.045Z,80.10
2017-08-17T20:01:16.573Z,79.90
2017-08-17T20:03:44.106Z,80.60
2017-08-17T20:06:11.622Z,81.40
2017-08-17T20:08:39.425Z,81.40
2017-08-17T20:11:06.975Z,81.30
2017-08-17T20:13:34.485Z,81.60
2017-08-17T20:16:02.024Z,82.60
2017-08-17T20:18:29.533Z,82.90
2017-08-17T20:20:57.075Z,82.00
2017-08-17T20:23:24.586Z,82.00
2017-08-17T20:25:52.128Z,81.50
2017-08-17T20:28:19.647Z,79.80
2017-08-17T20:30:47.182Z,79.40
2017-08-17T20:33:14.699Z,78.60
2017-08-17T20:35:42.245Z,78.00
2017-08-17T20:38:09.768Z,77.70
2017-08-17T20:40:37.319Z,77.40
2017-08-17T20:43:05.611Z,77.30
2017-08-17T20:45:33.132Z,77.10
2017-08-17T20:48:00.665Z,77.20
2017-08-17T20:50:28.947Z,77.20
2017-08-17T20:52:56.488Z,77.10
2017-08-17T20:55:24.002Z,77.40
2017-08-17T20:57:51.542Z,77.20
2017-08-17T21:00:19.059Z,77.30
2017-08-17T21:02:47.354Z,78.20
2017-08-17T21:05:14.876Z,77.30
2017-08-17T21:07:42.406Z,77.30
2017-08-17T21:10:09.927Z,77.10
2017-08-17T21:12:38.239Z,77.50
2017-08-17T21:15:05.762Z,77.50
2017-08-17T21:17:34.049Z,78.70
2017-08-17T21:20:01.584Z,78.10
2017-08-17T21:22:29.103Z,78.20
2017-08-17T21:24:57.406Z,78.80
2017-08-17T21:27:24.922Z,79.30
2017-08-17T21:29:52.458Z,79.60
2017-08-17T21:32:19.981Z,79.30
2017-08-17T21:34:47.515Z,79.50
2017-08-17T21:37:15.034Z,80.20
2017-08-17T21:39:43.338Z,82.00
2017-08-17T21:42:10.858Z,81.90
2017-08-17T21:44:38.403Z,84.00
2017-08-17T21:47:05.922Z,85.50
2017-08-17T21:49:33.436Z,85.70
2017-08-17T21:52:00.975Z,86.00
2017-08-17T21:54:28.494Z,86.60
2017-08-17T21:56:56.030Z,87.70
2017-08-17T21:59:24.316Z,87.50
2017-08-17T22:01:52.618Z,86.70
2017-08-17T22:04:20.133Z,86.70
2017-08-17T22:06:47.667Z,86.10
2017-08-17T22:09:15.191Z,85.30
2017-08-17T22:11:42.743Z,85.50
2017-08-17T22:14:10.257Z,85.40
2017-08-17T22:16:37.773Z,85.40
2017-08-17T22:19:05.314Z,86.40
2017-08-17T22:21:32.830Z,86.80
2017-08-17T22:24:00.361Z,88.00
2017-08-17T22:26:27.874Z,89.00
2017-08-17T22:28:55.409Z,89.70
2017-08-17T22:31:22.927Z,90.00
2017-08-17T22:33:50.469Z,90.10
2017-08-17T22:36:17.994Z,90.20
2017-08-17T22:38:45.537Z,90.30
2017-08-17T22:41:13.054Z,90.50
2017-08-17T22:43:40.601Z,90.50
2017-08-17T22:46:08.118Z,90.50
2017-08-17T22:48:35.666Z,90.60
2017-08-17T22:51:03.966Z,90.50
2017-08-17T22:53:31.494Z,90.40
2017-08-17T22:55:59.043Z,90.30
2017-08-17T22:58:26.564Z,90.60
2017-08-17T23:00:54.867Z,90.60
2017-08-17T23:03:22.391Z,90.60
2017-08-17T23:05:49.927Z,90.90
2017-08-17T23:08:17.449Z,90.20
2017-08-17T23:10:45.762Z,91.10
2017-08-17T23:13:13.295Z,91.00
2017-08-17T23:15:40.843Z,91.80
2017-08-17T23:18:08.358Z,91.90
2017-08-17T23:20:35.878Z,92.10
2017-08-17T23:23:03.420Z,92.10
2017-08-17T23:25:30.937Z,92.10
2017-08-17T23:27:58.473Z,92.20
2017-08-17T23:30:25.991Z,92.20
2017-08-17T23:32:53.534Z,92.10
2017-08-17T23:35:21.824Z,91.90
2017-08-17T23:37:49.371Z,92.00
2017-08-17T23:40:16.892Z,93.30
2017-08-17T23:42:44.431Z,93.20
2017-08-17T23:45:11.957Z,93.10
2017-08-17T23:47:39.494Z,92.90
2017-08-17T23:50:07.010Z,92.90
2017-08-17T23:52:34.537Z,93.10
2017-08-17T23:55:02.850Z,93.60
2017-08-17T23:57:30.365Z,93.60
2017-08-17T23:59:58.671Z,93.70
